Ekin, Indiana
Current Conditions -  °F | °C
As of 10:15 PM on Thursday 18 Dec 2014 (Local Time) from KTYQ Reporting Station
Scattered Clouds Scattered Clouds  
Wind Chill: 19°   Ceiling: Unl
Heat Index: 25°   Visibility: 10mi
Dew Point: 20°   Wind: 5mph
Humidity: 81%   Direction: 310°NW
Pressure: 30.25"   Gusts: NA
Location:  40.1832°N, 85.9359°W
Report Text: KTYQ 190315Z AUTO 31004KT 10SM SCT075 M04/M07 A3025 RMK AO2 T10381067
Loading
Personal Weather Stations






























Interactive Weather Map New forecast layout! Learn more

10-Day Weather Forecast

Advertisements
Track Severe Weather on mobile